ADDS METAR Data INFO
IDs: Format: Raw Decoded Include TAF

Data at: 0253 UTC 21 Jan 2018

KCAV 210235Z AUTO 10005KT 9SM CLR 01/01 A2990 RMK AO2 PWINO
KCAV 210215Z AUTO 09006KT 10SM CLR 01/01 A2989 RMK AO2 PWINO
KCAV 210155Z AUTO 11005KT 10SM CLR 01/01 A2988 RMK AO2 PWINO
KCAV 210135Z AUTO 11006KT 10SM CLR 02/02 A2989 RMK AO2 PWINO
KCAV 210115Z AUTO 11005KT 10SM CLR 02/02 A2990 RMK AO2 PWINO
KCAV 210055Z AUTO 11005KT 10SM CLR 03/03 A2990 RMK AO2 PWINO
KCAV 210035Z AUTO 11005KT 10SM CLR 03/03 A2990 RMK AO2 PWINO
KCAV 210015Z AUTO 10006KT 10SM CLR 03/03 A2990 RMK AO2 PWINO
KCAV 202355Z AUTO 11006KT 10SM CLR 04/04 A2988 RMK AO2 PWINO
KCAV 202335Z AUTO 11005KT 10SM CLR 04/04 A2988 RMK AO2 PWINO
KCAV 202315Z AUTO 09005KT 10SM CLR 05/05 A2988 RMK AO2 PWINO
KCAV 202255Z AUTO 07005KT 10SM CLR 08/04 A2987 RMK AO2 PWINO
KCAV 202235Z AUTO 08004KT 10SM CLR 08/04 A2986 RMK AO2 PWINO
KCAV 202215Z AUTO 00000KT 10SM CLR 09/04 A2986 RMK AO2 PWINO
KCAV 202155Z AUTO 07005KT 10SM CLR 10/03 A2985 RMK AO2 PWINO
KCAV 202135Z AUTO 08005KT 10SM CLR 11/03 A2985 RMK AO2 PWINO
KCAV 202115Z AUTO 10005KT 10SM CLR 11/02 A2985 RMK AO2 PWINO
KCAV 202055Z AUTO 00000KT 10SM CLR 11/03 A2985 RMK AO2 PWINO
KCAV 202035Z AUTO 00000KT 10SM CLR 10/03 A2985 RMK AO2 PWINO
KCAV 202015Z AUTO 00000KT 10SM CLR 10/02 A2985 RMK AO2 PWINO
KCAV 201955Z AUTO 13005KT 10SM CLR 10/02 A2984 RMK AO2 PWINO
KCAV 201935Z AUTO 11003KT 10SM CLR 10/02 A2984 RMK AO2 PWINO
KCAV 201915Z AUTO 00000KT 10SM CLR 10/03 A2986 RMK AO2 PWINO
KCAV 201855Z AUTO 03003KT 10SM CLR 09/02 A2986 RMK AO2 PWINO
KCAV 201835Z AUTO 34003KT 10SM CLR 08/03 A2987 RMK AO2 PWINO
KCAV 201815Z AUTO 00000KT 10SM CLR 08/03 A2987 RMK AO2 PWINO
KCAV 201755Z AUTO 00000KT 10SM CLR 07/04 A2988 RMK AO2 PWINO
KCAV 201735Z AUTO 00000KT 10SM CLR 07/04 A2988 RMK AO2 PWINO
KCAV 201715Z AUTO 10004KT 10SM CLR 06/05 A2988 RMK AO2 PWINO
KCAV 201655Z AUTO 07005KT 10SM CLR 06/05 A2987 RMK AO2 PWINO
KCAV 201635Z AUTO 06005KT 10SM CLR 04/04 A2987 RMK AO2 PWINO
KCAV 201615Z AUTO 08005KT 10SM CLR 03/03 A2988 RMK AO2 PWINO
KCAV 201555Z AUTO 06003KT 10SM CLR 03/03 A2988 RMK AO2 PWINO
KCAV 201535Z AUTO 00000KT 10SM CLR 01/01 A2988 RMK AO2 PWINO
KCAV 201515Z AUTO 00000KT 10SM CLR M00/M00 A2987 RMK AO2 PWINO
KCAV 201455Z AUTO 00000KT 10SM CLR M01/M01 A2986 RMK AO2 PWINO
KCAV 201435Z AUTO 04004KT 9SM CLR M02/M02 A2986 RMK AO2 PWINO
KCAV 201415Z AUTO 06003KT 9SM CLR M04/M03 A2985 RMK AO2 PWINO
KCAV 201355Z AUTO 03006KT 9SM CLR M05/M04 A2984 RMK AO2 PWINO
KCAV 201335Z AUTO 36006KT 9SM CLR M04/M04 A2984 RMK AO2 PWINO
KCAV 201315Z AUTO 00000KT 10SM CLR M04/M04 A2985 RMK AO2 PWINO
KCAV 201255Z AUTO 00000KT 10SM CLR M05/M05 A2984 RMK AO2 PWINO
KCAV 201235Z AUTO 00000KT 10SM CLR M03/M03 A2983 RMK AO2 PWINO
KCAV 201215Z AUTO 34005KT 10SM CLR M03/M03 A2983 RMK AO2 PWINO
KCAV 201155Z AUTO 34004KT 10SM CLR M02/M02 A2982 RMK AO2 PWINO
KCAV 201135Z AUTO 00000KT 10SM CLR M03/M03 A2982 RMK AO2 PWINO
KCAV 201115Z AUTO 00000KT 10SM CLR M03/M03 A2981 RMK AO2 PWINO
KCAV 201055Z AUTO 00000KT 10SM CLR M02/M02 A2980 RMK AO2 PWINO
KCAV 201035Z AUTO 17003KT 10SM CLR M03/M03 A2979 RMK AO2 PWINO
KCAV 201015Z AUTO 20003KT 10SM CLR M03/M03 A2979 RMK AO2 PWINO
KCAV 200955Z AUTO 00000KT 10SM CLR M03/M03 A2979 RMK AO2 PWINO
KCAV 200935Z AUTO 00000KT 10SM CLR M02/M02 A2979 RMK AO2 PWINO
KCAV 200915Z AUTO 00000KT 10SM CLR M02/M02 A2979 RMK AO2 PWINO
KCAV 200855Z AUTO 00000KT M02/M02 A2978 RMK AO2 PWINO
KCAV 200835Z AUTO 00000KT 10SM CLR M01/M01 A2978 RMK AO2 PWINO
KCAV 200815Z AUTO 00000KT 10SM CLR M02/M02 A2977 RMK AO2 PWINO
KCAV 200755Z AUTO 00000KT 10SM CLR M01/M01 A2977 RMK AO2 PWINO
KCAV 200735Z AUTO 00000KT 10SM CLR M01/M01 A2976 RMK AO2 PWINO
KCAV 200715Z AUTO 23003KT 10SM CLR M01/M01 A2976 RMK AO2 PWINO
KCAV 200655Z AUTO 00000KT 10SM CLR M01/M01 A2975 RMK AO2 PWINO
KCAV 200635Z AUTO 21005KT 10SM CLR M01/M01 A2974 RMK AO2 PWINO
KCAV 200615Z AUTO 21004KT 10SM CLR M01/M01 A2975 RMK AO2 PWINO
KCAV 200555Z AUTO 21004KT 10SM CLR M01/M01 A2975 RMK AO2 PWINO
KCAV 200535Z AUTO 24005KT 10SM CLR M00/M00 A2975 RMK AO2 PWINO
KCAV 200515Z AUTO 22005KT 10SM CLR M00/M00 A2974 RMK AO2 PWINO
KCAV 200455Z AUTO 20003KT 10SM CLR M00/M00 A2973 RMK AO2 PWINO
KCAV 200435Z AUTO 23005KT 10SM CLR 00/00 A2972 RMK AO2 PWINO
KCAV 200415Z AUTO 23007KT 10SM CLR 01/01 A2972 RMK AO2 PWINO
KCAV 200355Z AUTO 22007KT 10SM CLR 01/01 A2971 RMK AO2 PWINO
KCAV 200335Z AUTO 24006KT 10SM CLR 01/01 A2972 RMK AO2 PWINO
KCAV 200315Z AUTO 23008KT 10SM CLR 01/01 A2970 RMK AO2 PWINO
KCAV 200255Z AUTO 22008KT 10SM CLR 01/01 A2969 RMK AO2 PWINO
KCAV 200235Z AUTO 22008KT 10SM CLR 01/01 A2968 RMK AO2 PWINO
KCAV 200215Z AUTO 22009KT 10SM CLR 02/02 A2967 RMK AO2 PWINO
KCAV 200155Z AUTO 22010KT 10SM CLR 02/02 A2966 RMK AO2 PWINO
KCAV 200135Z AUTO 23007KT 10SM CLR 02/02 A2967 RMK AO2 PWINO
KCAV 200115Z AUTO 23006KT 10SM CLR 02/02 A2967 RMK AO2 PWINO
KCAV 200055Z AUTO 23008KT 10SM CLR 02/02 A2966 RMK AO2 PWINO
KCAV 200035Z AUTO 22008KT 10SM CLR 02/02 A2965 RMK AO2 PWINO
KCAV 200015Z AUTO 22009KT 10SM CLR 02/02 A2964 RMK AO2 PWINO
KCAV 192355Z AUTO 21009KT 10SM FEW035 02/02 A2964 RMK AO2 PWINO
KCAV 192335Z AUTO 21009KT 10SM CLR 02/02 A2962 RMK AO2 PWINO
KCAV 192315Z AUTO 21007KT 10SM CLR 02/02 A2961 RMK AO2 PWINO
KCAV 192255Z AUTO 20008KT 10SM CLR 03/02 A2961 RMK AO2 PWINO
KCAV 192235Z AUTO 20007KT 10SM CLR 04/02 A2961 RMK AO2 PWINO
KCAV 192215Z AUTO 21011KT 10SM CLR 04/02 A2960 RMK AO2 PWINO
KCAV 192155Z AUTO 22010KT 10SM CLR 05/02 A2960 RMK AO2 PWINO
KCAV 192135Z AUTO 22010KT 10SM CLR 05/01 A2959 RMK AO2 PWINO
KCAV 192115Z AUTO 21017KT 10SM CLR 06/01 A2957 RMK AO2 PWINO
KCAV 192055Z AUTO 21017G22KT 10SM CLR 06/01 A2957 RMK AO2 PWINO
KCAV 192035Z AUTO 21017KT 10SM CLR 06/01 A2957 RMK AO2 PWINO
KCAV 192015Z AUTO 21015G21KT 10SM CLR 06/01 A2957 RMK AO2 PWINO
KCAV 191955Z AUTO 21015KT 10SM CLR 06/01 A2957 RMK AO2 PWINO
KCAV 191935Z AUTO 21015G20KT 10SM CLR 06/01 A2958 RMK AO2 PWINO
KCAV 191915Z AUTO 20014G21KT 10SM CLR 06/01 A2958 RMK AO2 PWINO
KCAV 191855Z AUTO 20014KT 10SM CLR 05/01 A2959 RMK AO2 PWINO
KCAV 191835Z AUTO 20015G20KT 10SM CLR 05/01 A2960 RMK AO2 PWINO
KCAV 191815Z AUTO 20018KT 10SM CLR 05/00 A2961 RMK AO2 PWINO
KCAV 191755Z AUTO 20018KT 10SM CLR 04/M00 A2963 RMK AO2 PWINO
KCAV 191735Z AUTO 20016KT 10SM CLR 03/M00 A2964 RMK AO2 PWINO
KCAV 191715Z AUTO 20015KT 10SM CLR 03/00 A2965 RMK AO2 PWINO
KCAV 191655Z AUTO 20015KT 10SM CLR 03/00 A2966 RMK AO2 PWINO
KCAV 191635Z AUTO 20015KT 10SM CLR 02/00 A2966 RMK AO2 PWINO
KCAV 191615Z AUTO 19012KT 10SM CLR 01/M00 A2967 RMK AO2 PWINO
KCAV 191555Z AUTO 19011KT 10SM CLR M00/M01 A2968 RMK AO2 PWINO
KCAV 191535Z AUTO 19015KT 10SM CLR M01/M01 A2967 RMK AO2 PWINO
KCAV 191515Z AUTO 19013KT 10SM CLR M01/M01 A2967 RMK AO2 PWINO
KCAV 191455Z AUTO 18013KT 10SM CLR M02/M02 A2968 RMK AO2 PWINO